Time;durP1;ratioP1;P1;durP2;ratioP2;P2;SDS_P1;SDS_P2;PMS_P1;PMS_P2;Temp;Humidity;BMP_temperature;BMP_pressure;BME280_temperature;BME280_humidity;BME280_pressure;Samples;Min_cycle;Max_cycle;Signal;HPM_P1;HPM_P2
2023/06/11 00:00:23;;;;;;;0.00;0.00;;;18.90;79.30;;;;;;5003831;28;20061;-66
2023/06/11 00:02:54;;;;;;;0.00;0.00;;;18.90;79.50;;;;;;5007905;28;20033;-67
2023/06/11 00:05:24;;;;;;;0.00;0.00;;;18.90;79.40;;;;;;5011355;28;20050;-67
2023/06/11 00:07:50;;;;;;;0.00;0.00;;;18.90;79.40;;;;;;5011569;28;20049;-67
2023/06/11 00:10:16;;;;;;;0.00;0.00;;;18.90;79.30;;;;;;4994309;28;20050;-67
2023/06/11 00:12:42;;;;;;;0.00;0.00;;;18.90;79.60;;;;;;5011814;28;20092;-67
2023/06/11 00:15:09;;;;;;;0.00;0.00;;;18.90;79.70;;;;;;5011269;28;20177;-67
2023/06/11 00:17:34;;;;;;;0.00;0.00;;;18.90;80.10;;;;;;5011436;28;20038;-67
2023/06/11 00:20:08;;;;;;;0.00;0.00;;;18.90;80.00;;;;;;5011288;28;20056;-66
2023/06/11 00:22:34;;;;;;;0.00;0.00;;;18.90;79.90;;;;;;5011402;28;20449;-67
2023/06/11 00:25:00;;;;;;;0.00;0.00;;;18.80;80.10;;;;;;4993708;28;20061;-67
2023/06/11 00:27:25;;;;;;;0.00;0.00;;;18.80;80.10;;;;;;5011010;28;20185;-67
2023/06/11 00:29:53;;;;;;;0.00;0.00;;;18.80;79.90;;;;;;5003274;28;20038;-67
2023/06/11 00:32:19;;;;;;;0.00;0.00;;;18.90;80.40;;;;;;4990923;28;20782;-67
2023/06/11 00:34:44;;;;;;;0.00;0.00;;;18.80;80.40;;;;;;4991156;28;20049;-67
2023/06/11 00:37:11;;;;;;;0.00;0.00;;;18.90;80.60;;;;;;4993353;28;20510;-67
2023/06/11 00:39:36;;;;;;;0.00;0.00;;;18.80;80.50;;;;;;5010933;28;20046;-67
2023/06/11 00:42:02;;;;;;;0.00;0.00;;;18.90;80.40;;;;;;5010834;28;20065;-67
2023/06/11 00:44:29;;;;;;;0.00;0.00;;;18.80;80.50;;;;;;5004293;28;20038;-67
2023/06/11 00:46:57;;;;;;;0.00;0.00;;;18.80;80.80;;;;;;5008598;28;20058;-66
2023/06/11 00:49:23;;;;;;;0.00;0.00;;;18.80;81.10;;;;;;5010624;28;20050;-67
2023/06/11 00:51:49;;;;;;;0.57;0.20;;;18.70;81.10;;;;;;5010852;28;20054;-67
2023/06/11 00:54:16;;;;;;;0.00;0.00;;;18.70;80.20;;;;;;5009850;28;20046;-67
2023/06/11 00:56:45;;;;;;;0.00;0.00;;;18.70;80.80;;;;;;5010767;28;20048;-66
2023/06/11 00:59:13;;;;;;;0.00;0.00;;;18.70;80.40;;;;;;5005761;28;20045;-67
2023/06/11 01:01:45;;;;;;;0.00;0.00;;;18.70;80.70;;;;;;4999778;28;20051;-67
2023/06/11 01:04:17;;;;;;;0.00;0.00;;;18.70;80.60;;;;;;5007825;28;20422;-67
2023/06/11 01:06:52;;;;;;;0.00;0.00;;;18.70;80.30;;;;;;5010608;28;20494;-67
2023/06/11 01:09:20;;;;;;;0.00;0.00;;;18.70;80.20;;;;;;5009244;28;20053;-66
2023/06/11 01:11:48;;;;;;;0.00;0.00;;;18.60;80.70;;;;;;5010380;28;20046;-66
2023/06/11 01:14:17;;;;;;;0.00;0.00;;;18.60;80.60;;;;;;5009905;28;20048;-66
2023/06/11 01:17:04;;;;;;;0.00;0.00;;;18.60;81.00;;;;;;5010583;28;20128;-66
2023/06/11 01:19:58;;;;;;;0.00;0.00;;;18.60;81.10;;;;;;5010264;28;20038;-66
2023/06/11 01:22:49;;;;;;;0.00;0.00;;;18.60;80.70;;;;;;5010389;28;20042;-66
2023/06/11 01:25:30;;;;;;;0.00;0.00;;;18.60;80.60;;;;;;5009638;28;20046;-67
2023/06/11 01:28:10;;;;;;;0.00;0.00;;;18.60;81.20;;;;;;4991950;28;20569;-67
2023/06/11 01:30:39;;;;;;;0.00;0.00;;;18.60;81.00;;;;;;4990745;28;20039;-67
2023/06/11 01:33:06;;;;;;;0.00;0.00;;;18.60;81.10;;;;;;4957236;28;20513;-66
2023/06/11 01:35:33;;;;;;;0.00;0.00;;;18.60;81.10;;;;;;4990207;28;20046;-66
2023/06/11 01:37:59;;;;;;;0.00;0.00;;;18.60;81.20;;;;;;4982763;28;20058;-66
2023/06/11 01:40:26;;;;;;;0.00;0.00;;;18.60;81.10;;;;;;4990467;28;20504;-66
2023/06/11 01:42:53;;;;;;;0.00;0.00;;;18.60;81.00;;;;;;4992079;28;20042;-66
2023/06/11 01:45:19;;;;;;;0.00;0.00;;;18.60;80.60;;;;;;4992579;28;20057;-67
2023/06/11 01:47:45;;;;;;;0.00;0.00;;;18.60;80.30;;;;;;5009688;28;20045;-66
2023/06/11 01:50:12;;;;;;;0.00;0.00;;;18.60;80.50;;;;;;5009494;28;20065;-67
2023/06/11 01:52:38;;;;;;;0.00;0.00;;;18.60;80.40;;;;;;5009877;28;20050;-66
2023/06/11 01:55:06;;;;;;;0.20;0.20;;;18.60;80.40;;;;;;5009591;28;20427;-67
2023/06/11 01:57:32;;;;;;;0.00;0.00;;;18.60;80.40;;;;;;4976210;28;20578;-67
2023/06/11 01:59:57;;;;;;;0.00;0.00;;;18.50;79.90;;;;;;5009439;28;20105;-67
2023/06/11 02:02:23;;;;;;;0.00;0.00;;;18.50;80.20;;;;;;5009061;28;20494;-67
2023/06/11 02:04:49;;;;;;;0.00;0.00;;;18.50;80.30;;;;;;5009359;28;20052;-66
2023/06/11 02:07:14;;;;;;;0.00;0.00;;;18.50;80.20;;;;;;4992250;28;20188;-67
2023/06/11 02:09:40;;;;;;;0.00;0.00;;;18.50;80.00;;;;;;5010032;28;20077;-67
2023/06/11 02:12:06;;;;;;;0.00;0.00;;;18.50;80.00;;;;;;4993481;28;20042;-67
2023/06/11 02:14:32;;;;;;;0.00;0.00;;;18.50;79.80;;;;;;4991309;28;20049;-66
2023/06/11 02:16:58;;;;;;;0.00;0.00;;;18.50;79.50;;;;;;5009232;28;20046;-66
2023/06/11 02:19:23;;;;;;;0.00;0.00;;;18.40;79.50;;;;;;5008850;28;20044;-67
2023/06/11 02:21:49;;;;;;;0.00;0.00;;;18.40;79.40;;;;;;5009698;28;20128;-66
2023/06/11 02:24:15;;;;;;;0.00;0.00;;;18.50;79.40;;;;;;5009294;28;20041;-66
2023/06/11 02:26:40;;;;;;;0.00;0.00;;;18.50;79.20;;;;;;4996880;28;20108;-66
2023/06/11 02:29:06;;;;;;;0.00;0.00;;;18.40;79.10;;;;;;5008462;28;20533;-66
2023/06/11 02:31:32;;;;;;;0.00;0.00;;;18.40;78.90;;;;;;5002872;28;20050;-66
2023/06/11 02:33:57;;;;;;;0.00;0.00;;;18.40;78.90;;;;;;4989857;28;20050;-66
2023/06/11 02:36:23;;;;;;;0.00;0.00;;;18.40;78.80;;;;;;5004950;28;20531;-67
2023/06/11 02:38:49;;;;;;;0.00;0.00;;;18.40;78.70;;;;;;5001460;28;20034;-66
2023/06/11 02:41:15;;;;;;;0.00;0.00;;;18.30;78.60;;;;;;5000105;28;20050;-66
2023/06/11 02:43:41;;;;;;;0.00;0.00;;;18.40;78.50;;;;;;5007673;28;20568;-66
2023/06/11 02:46:07;;;;;;;0.00;0.00;;;18.40;78.50;;;;;;5004406;28;20039;-67
2023/06/11 02:48:32;;;;;;;0.28;0.28;;;18.40;78.50;;;;;;4995951;28;20046;-66
2023/06/11 02:50:58;;;;;;;0.00;0.00;;;18.30;78.40;;;;;;4982876;28;20074;-66
2023/06/11 02:53:23;;;;;;;0.00;0.00;;;18.30;78.20;;;;;;4988677;28;20042;-67
2023/06/11 02:55:49;;;;;;;0.00;0.00;;;18.30;78.20;;;;;;4989968;28;20050;-66
2023/06/11 02:58:15;;;;;;;0.00;0.00;;;18.30;78.20;;;;;;4991858;28;20121;-67
2023/06/11 03:00:40;;;;;;;0.00;0.00;;;18.30;78.00;;;;;;4992475;28;20042;-66
2023/06/11 03:03:06;;;;;;;0.00;0.00;;;18.20;78.00;;;;;;4992158;28;20058;-67
2023/06/11 03:05:31;;;;;;;0.20;0.20;;;18.20;77.90;;;;;;4992848;28;20053;-66
2023/06/11 03:07:57;;;;;;;0.00;0.00;;;18.20;77.90;;;;;;4991876;28;20400;-66
2023/06/11 03:10:23;;;;;;;0.00;0.00;;;18.20;77.80;;;;;;4993422;28;20054;-66
2023/06/11 03:12:49;;;;;;;0.00;0.00;;;18.20;77.90;;;;;;4977622;28;20555;-66
2023/06/11 03:15:15;;;;;;;0.00;0.00;;;18.20;77.80;;;;;;4973708;28;20125;-66
2023/06/11 03:17:40;;;;;;;0.00;0.00;;;18.20;77.80;;;;;;4976182;28;20092;-67
2023/06/11 03:20:06;;;;;;;0.05;0.05;;;18.20;77.90;;;;;;4993241;28;20129;-66
2023/06/11 03:22:32;;;;;;;0.00;0.00;;;18.20;77.90;;;;;;4992717;28;20105;-66
2023/06/11 03:24:58;;;;;;;0.00;0.00;;;18.10;78.00;;;;;;4992514;28;20503;-66
2023/06/11 03:27:23;;;;;;;0.00;0.00;;;18.20;78.00;;;;;;4975234;28;20480;-66
2023/06/11 03:29:49;;;;;;;0.00;0.00;;;18.10;78.00;;;;;;4973690;28;20106;-66
2023/06/11 03:32:14;;;;;;;0.05;0.05;;;18.10;78.00;;;;;;4972901;28;20047;-66
2023/06/11 03:34:41;;;;;;;0.03;0.00;;;18.10;78.20;;;;;;4979462;28;20125;-66
2023/06/11 03:37:06;;;;;;;0.00;0.00;;;18.10;78.30;;;;;;4992969;28;20062;-66
2023/06/11 03:39:32;;;;;;;0.00;0.00;;;18.10;78.20;;;;;;4991190;28;20056;-66
2023/06/11 03:41:57;;;;;;;0.00;0.00;;;18.10;78.30;;;;;;4979973;28;20134;-66
2023/06/11 03:44:23;;;;;;;0.00;0.00;;;18.10;78.40;;;;;;4991966;28;20129;-66
2023/06/11 03:46:48;;;;;;;0.00;0.00;;;18.10;78.20;;;;;;4993029;28;20039;-67
2023/06/11 03:49:14;;;;;;;0.00;0.00;;;18.10;78.10;;;;;;4992758;28;20050;-66
2023/06/11 03:51:40;;;;;;;0.00;0.00;;;18.10;77.90;;;;;;5002249;28;20057;-66
2023/06/11 03:54:06;;;;;;;0.00;0.00;;;18.10;77.80;;;;;;5011888;28;20499;-66
2023/06/11 03:56:32;;;;;;;0.00;0.00;;;18.10;77.80;;;;;;5006508;28;20141;-66
2023/06/11 03:58:57;;;;;;;0.00;0.00;;;18.10;77.80;;;;;;4971160;28;20179;-67
2023/06/11 04:01:23;;;;;;;0.05;0.05;;;18.10;77.70;;;;;;5011764;28;20045;-67
2023/06/11 04:03:49;;;;;;;0.00;0.00;;;18.10;77.80;;;;;;5012505;28;20046;-67
2023/06/11 04:06:16;;;;;;;0.00;0.00;;;18.10;77.70;;;;;;5011767;28;20042;-67
2023/06/11 04:08:41;;;;;;;0.00;0.00;;;18.10;77.70;;;;;;5009795;28;20046;-67
2023/06/11 04:11:08;;;;;;;0.00;0.00;;;18.10;77.70;;;;;;5001516;28;20046;-67
2023/06/11 04:13:34;;;;;;;0.00;0.00;;;18.10;77.70;;;;;;4991898;28;20053;-66
2023/06/11 04:15:59;;;;;;;0.00;0.00;;;18.10;77.70;;;;;;4992017;28;20046;-66
2023/06/11 04:18:25;;;;;;;0.00;0.00;;;18.10;77.70;;;;;;5006316;28;20078;-67
2023/06/11 04:20:51;;;;;;;0.00;0.00;;;18.20;77.70;;;;;;5011753;28;20050;-67
2023/06/11 04:23:17;;;;;;;0.00;0.00;;;18.10;77.60;;;;;;5011211;28;20068;-66
2023/06/11 04:25:43;;;;;;;0.00;0.00;;;18.20;77.50;;;;;;5011269;28;20034;-66
2023/06/11 04:28:10;;;;;;;0.00;0.00;;;18.20;77.50;;;;;;5010610;28;20050;-66
2023/06/11 04:30:36;;;;;;;0.00;0.00;;;18.20;77.50;;;;;;5011030;28;20050;-66
2023/06/11 04:33:03;;;;;;;0.00;0.00;;;18.20;77.40;;;;;;4993759;28;20049;-66
2023/06/11 04:35:29;;;;;;;0.00;0.00;;;18.30;77.40;;;;;;5010951;28;20077;-67
2023/06/11 04:37:55;;;;;;;0.00;0.00;;;18.20;77.30;;;;;;5011112;28;20042;-67
2023/06/11 04:40:23;;;;;;;0.00;0.00;;;18.30;77.20;;;;;;5003429;28;20050;-67
2023/06/11 04:42:49;;;;;;;0.00;0.00;;;18.30;77.20;;;;;;4978719;28;20041;-66
2023/06/11 04:45:18;;;;;;;0.00;0.00;;;18.30;77.20;;;;;;5009656;28;20037;-66
2023/06/11 04:47:45;;;;;;;0.00;0.00;;;18.30;77.10;;;;;;5010939;28;20171;-66
2023/06/11 04:50:11;;;;;;;0.00;0.00;;;18.40;77.00;;;;;;5010812;28;20054;-67
2023/06/11 04:52:38;;;;;;;0.40;0.40;;;18.40;77.00;;;;;;5010154;28;20135;-66
2023/06/11 04:55:05;;;;;;;0.00;0.00;;;18.50;77.00;;;;;;4982556;28;20046;-66
2023/06/11 04:57:34;;;;;;;0.00;0.00;;;18.50;77.10;;;;;;5009303;28;20046;-66
2023/06/11 05:00:00;;;;;;;0.10;0.10;;;18.50;77.00;;;;;;5010921;28;20050;-66
2023/06/11 05:02:26;;;;;;;0.00;0.00;;;18.50;76.90;;;;;;5009631;28;20414;-67
2023/06/11 05:04:53;;;;;;;0.00;0.00;;;18.60;77.00;;;;;;5007346;28;20898;-66
2023/06/11 05:07:20;;;;;;;0.00;0.00;;;18.60;76.90;;;;;;4998809;28;20048;-66
2023/06/11 05:09:46;;;;;;;0.00;0.00;;;18.60;76.90;;;;;;5010800;28;20050;-66
2023/06/11 05:12:12;;;;;;;0.00;0.00;;;18.70;76.80;;;;;;5008404;28;20038;-66
2023/06/11 05:14:38;;;;;;;0.00;0.00;;;18.80;76.90;;;;;;5009168;28;20050;-66
2023/06/11 05:17:04;;;;;;;0.00;0.00;;;18.80;76.90;;;;;;5010265;28;20073;-66
2023/06/11 05:19:30;;;;;;;0.00;0.00;;;18.80;76.80;;;;;;5009540;28;20077;-66
2023/06/11 05:21:56;;;;;;;0.00;0.00;;;18.80;76.70;;;;;;4992267;28;20084;-66
2023/06/11 05:24:28;;;;;;;0.00;0.00;;;18.90;76.60;;;;;;5009917;28;20518;-66
2023/06/11 05:26:55;;;;;;;0.00;0.00;;;18.90;76.60;;;;;;4993337;28;20037;-66
2023/06/11 05:29:21;;;;;;;0.00;0.00;;;18.90;76.50;;;;;;5001899;28;20125;-67
2023/06/11 05:31:47;;;;;;;0.00;0.00;;;19.00;76.40;;;;;;4993704;28;20472;-68
2023/06/11 05:34:13;;;;;;;0.00;0.00;;;19.00;76.40;;;;;;5009314;28;20111;-67
2023/06/11 05:36:38;;;;;;;0.00;0.00;;;19.00;76.50;;;;;;4975107;28;20480;-66
2023/06/11 05:39:04;;;;;;;0.00;0.00;;;19.10;76.50;;;;;;5009853;28;20466;-66
2023/06/11 05:41:30;;;;;;;0.00;0.00;;;19.10;76.60;;;;;;5009138;28;20430;-67
2023/06/11 05:43:56;;;;;;;0.00;0.00;;;19.20;76.40;;;;;;5009327;28;20406;-68
2023/06/11 05:46:24;;;;;;;0.00;0.00;;;19.20;76.20;;;;;;5009317;28;20456;-68
2023/06/11 05:48:49;;;;;;;0.00;0.00;;;19.20;76.10;;;;;;5009306;28;20045;-67
2023/06/11 05:51:15;;;;;;;0.30;0.30;;;19.30;76.10;;;;;;5008471;28;20053;-68
2023/06/11 05:53:40;;;;;;;0.00;0.00;;;19.40;76.40;;;;;;5009404;28;20050;-66
2023/06/11 05:56:06;;;;;;;0.00;0.00;;;19.40;76.30;;;;;;5009559;28;20057;-68
2023/06/11 05:58:33;;;;;;;0.00;0.00;;;19.50;76.20;;;;;;5009260;28;20056;-68
2023/06/11 06:01:03;;;;;;;0.00;0.00;;;19.50;76.00;;;;;;4990556;28;20065;-68
2023/06/11 06:03:32;;;;;;;0.55;0.40;;;19.50;76.00;;;;;;5008924;28;20053;-68
2023/06/11 06:06:02;;;;;;;0.00;0.00;;;19.60;75.80;;;;;;4998087;28;20148;-69
2023/06/11 06:08:28;;;;;;;0.00;0.00;;;19.60;75.90;;;;;;4989485;28;20038;-68
2023/06/11 06:10:54;;;;;;;0.00;0.00;;;19.70;75.90;;;;;;4989236;28;20058;-69
2023/06/11 06:13:21;;;;;;;0.00;0.00;;;19.80;76.00;;;;;;4999336;28;20517;-69
2023/06/11 06:15:47;;;;;;;0.00;0.00;;;19.80;75.80;;;;;;5001228;28;20050;-69
2023/06/11 06:18:14;;;;;;;0.00;0.00;;;19.90;75.60;;;;;;5004233;28;20038;-69
2023/06/11 06:20:40;;;;;;;0.00;0.00;;;19.90;75.50;;;;;;4964180;28;20133;-69
2023/06/11 06:23:06;;;;;;;0.00;0.00;;;20.00;75.30;;;;;;4998890;28;20050;-68
2023/06/11 06:25:31;;;;;;;0.00;0.00;;;20.10;75.30;;;;;;5006156;28;20053;-68
2023/06/11 06:27:57;;;;;;;0.00;0.00;;;20.10;75.20;;;;;;5007574;28;20041;-68
2023/06/11 06:30:23;;;;;;;0.00;0.00;;;20.10;75.20;;;;;;5007737;28;20521;-68
2023/06/11 06:32:48;;;;;;;0.00;0.00;;;20.20;75.10;;;;;;4982623;28;20045;-69
2023/06/11 06:35:14;;;;;;;0.00;0.00;;;20.30;74.90;;;;;;4999338;28;20046;-68
2023/06/11 06:37:39;;;;;;;0.00;0.00;;;20.30;74.70;;;;;;4999785;28;20030;-69
2023/06/11 06:40:06;;;;;;;0.00;0.00;;;20.30;74.70;;;;;;4997532;28;20105;-68
2023/06/11 06:42:31;;;;;;;0.00;0.00;;;20.40;74.60;;;;;;4978899;28;20542;-68
2023/06/11 06:44:57;;;;;;;0.00;0.00;;;20.50;74.20;;;;;;4973885;28;20061;-69
2023/06/11 06:47:22;;;;;;;0.00;0.00;;;20.50;74.00;;;;;;5008105;28;20498;-68
2023/06/11 06:49:48;;;;;;;0.00;0.00;;;20.60;73.80;;;;;;5007446;28;20158;-67
2023/06/11 06:52:13;;;;;;;0.00;0.00;;;20.60;73.70;;;;;;5005960;28;20101;-66
2023/06/11 06:54:39;;;;;;;0.00;0.00;;;20.70;73.60;;;;;;4979040;28;20077;-69
2023/06/11 06:57:07;;;;;;;0.13;0.13;;;20.80;73.60;;;;;;4986570;28;20041;-67
2023/06/11 06:59:33;;;;;;;0.00;0.00;;;20.90;73.60;;;;;;4998717;28;20046;-68
2023/06/11 07:01:58;;;;;;;0.00;0.00;;;21.00;73.60;;;;;;4996924;28;20045;-67
2023/06/11 07:04:24;;;;;;;0.00;0.00;;;21.00;73.20;;;;;;4991027;28;20060;-67
2023/06/11 07:06:50;;;;;;;0.00;0.00;;;21.10;73.10;;;;;;4994834;28;20050;-67
2023/06/11 07:09:15;;;;;;;0.00;0.00;;;21.20;73.20;;;;;;4990317;28;20065;-68
2023/06/11 07:11:41;;;;;;;0.20;0.20;;;21.30;73.20;;;;;;4992274;28;20088;-67
2023/06/11 07:14:06;;;;;;;0.00;0.00;;;21.30;72.70;;;;;;4997391;28;20034;-68
2023/06/11 07:16:32;;;;;;;0.00;0.00;;;21.40;72.60;;;;;;5000763;28;20046;-69
2023/06/11 07:18:58;;;;;;;0.30;0.30;;;21.50;71.80;;;;;;4985568;28;20054;-68
2023/06/11 07:21:24;;;;;;;0.03;0.03;;;21.60;72.40;;;;;;5004645;28;20060;-67
2023/06/11 07:23:50;;;;;;;0.85;0.40;;;21.70;72.50;;;;;;4990578;28;20038;-68
2023/06/11 07:26:15;;;;;;;0.00;0.00;;;21.70;72.40;;;;;;5002287;28;20057;-69
2023/06/11 07:28:41;;;;;;;0.00;0.00;;;21.80;72.00;;;;;;4998467;28;20070;-69
2023/06/11 07:31:07;;;;;;;0.45;0.45;;;22.00;71.90;;;;;;5001190;28;20060;-68
2023/06/11 07:33:33;;;;;;;0.00;0.00;;;22.00;71.50;;;;;;5007650;28;20137;-67
2023/06/11 07:35:59;;;;;;;0.10;0.10;;;22.00;70.80;;;;;;5004456;28;20053;-68
2023/06/11 07:38:25;;;;;;;1.48;0.75;;;22.10;71.10;;;;;;5002549;28;20092;-68
2023/06/11 07:40:52;;;;;;;0.00;0.00;;;22.10;69.70;;;;;;5013200;28;20053;-68
2023/06/11 07:43:17;;;;;;;0.00;0.00;;;22.20;69.90;;;;;;5017574;28;20139;-68
2023/06/11 07:45:43;;;;;;;2.72;0.35;;;22.30;70.50;;;;;;4993382;28;20487;-68
2023/06/11 07:48:10;;;;;;;0.32;0.32;;;22.30;70.30;;;;;;4978230;28;20050;-67
2023/06/11 07:50:37;;;;;;;0.00;0.00;;;22.40;69.70;;;;;;4992504;28;20058;-67
2023/06/11 07:53:03;;;;;;;0.00;0.00;;;22.50;70.00;;;;;;5011075;28;20076;-66
2023/06/11 07:55:29;;;;;;;0.00;0.00;;;22.50;69.60;;;;;;5009722;28;20061;-66
2023/06/11 07:57:55;;;;;;;0.15;0.15;;;22.60;69.70;;;;;;5006550;28;20137;-66
2023/06/11 08:00:21;;;;;;;0.20;0.20;;;22.70;69.50;;;;;;5004425;28;20125;-66
2023/06/11 08:02:46;;;;;;;0.00;0.00;;;22.70;69.30;;;;;;4994582;28;20045;-66
2023/06/11 08:05:17;;;;;;;0.35;0.30;;;22.80;69.30;;;;;;5009272;28;20046;-66
2023/06/11 08:07:47;;;;;;;0.00;0.00;;;22.90;68.90;;;;;;4995029;28;20106;-64
2023/06/11 08:10:13;;;;;;;0.00;0.00;;;22.90;68.60;;;;;;4993907;28;20150;-65
2023/06/11 08:12:39;;;;;;;0.00;0.00;;;23.10;68.50;;;;;;4992782;28;20096;-65
2023/06/11 08:15:05;;;;;;;0.10;0.10;;;23.10;68.90;;;;;;4992424;28;20042;-65
2023/06/11 08:17:30;;;;;;;0.00;0.00;;;23.20;68.50;;;;;;5006090;28;20084;-65
2023/06/11 08:19:56;;;;;;;0.00;0.00;;;23.20;68.20;;;;;;5012134;28;20453;-65
2023/06/11 08:22:22;;;;;;;0.00;0.00;;;23.30;68.30;;;;;;5011900;28;20053;-66
2023/06/11 08:24:47;;;;;;;0.10;0.10;;;23.50;68.50;;;;;;5012025;28;20049;-66
2023/06/11 08:27:13;;;;;;;0.00;0.00;;;23.50;68.40;;;;;;4994808;28;20053;-65
2023/06/11 08:29:39;;;;;;;0.00;0.00;;;23.50;67.90;;;;;;5011584;28;20053;-65
2023/06/11 08:32:05;;;;;;;0.20;0.20;;;23.60;67.70;;;;;;4996574;28;20043;-65
2023/06/11 08:34:30;;;;;;;0.00;0.00;;;23.60;67.60;;;;;;4992425;28;20054;-65
2023/06/11 08:36:57;;;;;;;0.00;0.00;;;23.70;67.20;;;;;;4974983;28;20061;-65
2023/06/11 08:39:22;;;;;;;0.00;0.00;;;23.80;67.50;;;;;;4991855;28;20430;-66
2023/06/11 08:41:48;;;;;;;0.00;0.00;;;23.90;66.00;;;;;;4974832;28;20054;-65
2023/06/11 08:44:14;;;;;;;0.00;0.00;;;23.90;66.40;;;;;;4992006;28;20057;-65
2023/06/11 08:46:43;;;;;;;0.35;0.30;;;24.00;66.10;;;;;;5005941;28;20034;-65
2023/06/11 08:49:18;;;;;;;0.00;0.00;;;24.00;67.00;;;;;;5011547;28;20514;-65
2023/06/11 08:51:46;;;;;;;0.00;0.00;;;24.10;66.40;;;;;;4996214;28;20508;-64
2023/06/11 08:54:12;;;;;;;0.00;0.00;;;24.20;67.20;;;;;;5006543;28;20061;-64
2023/06/11 08:56:38;;;;;;;0.03;0.03;;;24.30;66.20;;;;;;4986462;28;20041;-64
2023/06/11 08:59:03;;;;;;;0.00;0.00;;;24.30;65.20;;;;;;5010553;28;20042;-64
2023/06/11 09:01:31;;;;;;;0.20;0.20;;;24.50;65.30;;;;;;5010796;28;20041;-64
2023/06/11 09:03:57;;;;;;;0.22;0.22;;;24.50;65.00;;;;;;5010867;28;20046;-64
2023/06/11 09:06:23;;;;;;;0.00;0.00;;;24.50;65.70;;;;;;5003055;28;20038;-64
2023/06/11 09:09:06;;;;;;;0.00;0.00;;;24.70;65.20;;;;;;4991369;28;20122;-64
2023/06/11 09:11:40;;;;;;;0.00;0.00;;;24.80;64.40;;;;;;5004182;28;20053;-64
2023/06/11 09:14:07;;;;;;;0.00;0.00;;;24.80;65.10;;;;;;5008552;28;20054;-63
2023/06/11 09:16:43;;;;;;;0.00;0.00;;;24.90;65.10;;;;;;4997298;28;20582;-64
2023/06/11 09:19:20;;;;;;;0.00;0.00;;;25.00;64.70;;;;;;4990500;28;20053;-64
2023/06/11 09:21:56;;;;;;;0.80;0.55;;;25.00;64.00;;;;;;5003221;28;20236;-64
2023/06/11 09:24:22;;;;;;;0.00;0.00;;;25.10;65.30;;;;;;4992426;28;20121;-64
2023/06/11 09:26:58;;;;;;;0.00;0.00;;;25.20;62.90;;;;;;5008353;28;20042;-64
2023/06/11 09:29:25;;;;;;;0.00;0.00;;;25.20;63.60;;;;;;5003546;28;20035;-63
2023/06/11 09:32:04;;;;;;;0.10;0.10;;;25.30;64.20;;;;;;5004731;28;20067;-64
2023/06/11 09:34:30;;;;;;;0.10;0.10;;;25.40;64.00;;;;;;5009062;28;20041;-64
2023/06/11 09:36:55;;;;;;;0.00;0.00;;;25.50;63.90;;;;;;5004699;28;20180;-64
2023/06/11 09:39:22;;;;;;;0.00;0.00;;;25.50;62.30;;;;;;5007923;28;20057;-63
2023/06/11 09:41:49;;;;;;;0.00;0.00;;;25.60;63.80;;;;;;5007873;28;20127;-64
2023/06/11 09:44:17;;;;;;;0.08;0.08;;;25.60;63.30;;;;;;5006117;28;20954;-64
2023/06/11 09:46:43;;;;;;;0.00;0.00;;;25.70;63.80;;;;;;4988277;28;20085;-64
2023/06/11 09:49:10;;;;;;;0.00;0.00;;;25.80;63.00;;;;;;5002779;28;20038;-63
2023/06/11 09:51:38;;;;;;;0.03;0.03;;;25.90;62.80;;;;;;5006208;28;20111;-63
2023/06/11 09:54:07;;;;;;;0.10;0.10;;;26.00;62.50;;;;;;4997378;28;20046;-64
2023/06/11 09:56:35;;;;;;;0.00;0.00;;;26.00;63.00;;;;;;4998388;28;20053;-64
2023/06/11 09:59:02;;;;;;;0.00;0.00;;;26.10;63.00;;;;;;5008131;28;20161;-65
2023/06/11 10:01:33;;;;;;;0.00;0.00;;;26.20;62.20;;;;;;5006246;28;20129;-64
2023/06/11 10:03:59;;;;;;;0.00;0.00;;;26.20;61.00;;;;;;5008948;28;20038;-65
2023/06/11 10:06:32;;;;;;;0.00;0.00;;;26.30;61.80;;;;;;5008280;28;20054;-64
2023/06/11 10:09:00;;;;;;;0.00;0.00;;;26.30;62.10;;;;;;4988166;28;20510;-64
2023/06/11 10:11:29;;;;;;;0.00;0.00;;;26.40;61.90;;;;;;5006517;28;20119;-64
2023/06/11 10:13:59;;;;;;;4.82;0.47;;;26.50;62.10;;;;;;5008628;28;20042;-64
2023/06/11 10:16:25;;;;;;;0.07;0.07;;;26.50;61.40;;;;;;5008193;28;20120;-64
2023/06/11 10:18:52;;;;;;;0.00;0.00;;;26.50;61.00;;;;;;5004311;28;20037;-64
2023/06/11 10:21:18;;;;;;;0.00;0.00;;;26.60;61.50;;;;;;5008778;28;20529;-64
2023/06/11 10:23:50;;;;;;;0.00;0.00;;;26.70;61.30;;;;;;4990931;28;20045;-67
2023/06/11 10:26:16;;;;;;;0.00;0.00;;;26.80;60.10;;;;;;5004507;28;20050;-63
2023/06/11 10:28:44;;;;;;;0.00;0.00;;;26.90;59.30;;;;;;4993484;28;20096;-64
2023/06/11 10:31:10;;;;;;;0.00;0.00;;;27.00;60.90;;;;;;5008121;28;20038;-64
2023/06/11 10:33:44;;;;;;;0.00;0.00;;;27.00;60.10;;;;;;5003237;28;20049;-63
2023/06/11 10:36:21;;;;;;;5.47;0.45;;;27.00;59.40;;;;;;5007293;28;20042;-65
2023/06/11 10:38:46;;;;;;;0.00;0.00;;;27.20;59.00;;;;;;5002479;28;20092;-64
2023/06/11 10:41:12;;;;;;;0.00;0.00;;;27.30;60.40;;;;;;4976356;28;20165;-64
2023/06/11 10:43:38;;;;;;;0.20;0.20;;;27.40;60.40;;;;;;4996324;28;20381;-64
2023/06/11 10:46:06;;;;;;;0.00;0.00;;;27.50;60.10;;;;;;5002126;28;20817;-64
2023/06/11 10:48:32;;;;;;;0.00;0.00;;;27.50;60.40;;;;;;4999714;28;20044;-64
2023/06/11 10:50:59;;;;;;;0.00;0.00;;;27.60;59.50;;;;;;5001265;28;20046;-64
2023/06/11 10:53:36;;;;;;;0.00;0.00;;;27.80;59.90;;;;;;5003751;28;20088;-64
2023/06/11 10:56:02;;;;;;;0.00;0.00;;;27.90;58.20;;;;;;5003496;28;20046;-64
2023/06/11 10:58:29;;;;;;;0.00;0.00;;;28.00;57.80;;;;;;4995783;28;20824;-64
2023/06/11 11:00:56;;;;;;;0.00;0.00;;;28.10;57.00;;;;;;4995979;28;20042;-64
2023/06/11 11:03:22;;;;;;;0.03;0.03;;;28.10;57.00;;;;;;5003167;28;20053;-64
2023/06/11 11:05:52;;;;;;;0.00;0.00;;;28.20;54.00;;;;;;5000552;28;20449;-64
2023/06/11 11:08:18;;;;;;;0.10;0.10;;;28.30;53.80;;;;;;5005715;28;20053;-65
2023/06/11 11:10:44;;;;;;;0.10;0.10;;;28.40;57.10;;;;;;5000467;28;20057;-65
2023/06/11 11:13:10;;;;;;;0.00;0.00;;;28.50;56.50;;;;;;5007044;28;20042;-64
2023/06/11 11:15:36;;;;;;;0.00;0.00;;;28.60;58.30;;;;;;5003227;28;20045;-64
2023/06/11 11:18:02;;;;;;;0.00;0.00;;;28.50;52.40;;;;;;5004326;28;20042;-64
2023/06/11 11:20:32;;;;;;;0.52;0.43;;;28.70;54.00;;;;;;4964806;28;20046;-64
2023/06/11 11:22:58;;;;;;;0.10;0.10;;;28.80;54.50;;;;;;5005019;28;20054;-64
2023/06/11 11:25:29;;;;;;;0.00;0.00;;;28.90;54.60;;;;;;5009008;28;20495;-64
2023/06/11 11:27:56;;;;;;;0.05;0.05;;;29.00;52.30;;;;;;4996661;28;20049;-64
2023/06/11 11:30:22;;;;;;;0.00;0.00;;;29.00;51.80;;;;;;4978469;28;20407;-64
2023/06/11 11:32:49;;;;;;;0.00;0.00;;;29.10;53.20;;;;;;4992023;28;20050;-65
2023/06/11 11:35:15;;;;;;;0.00;0.00;;;29.10;53.20;;;;;;4992856;28;20053;-64
2023/06/11 11:37:41;;;;;;;0.28;0.28;;;29.20;52.10;;;;;;4993012;28;20038;-64
2023/06/11 11:40:07;;;;;;;0.00;0.00;;;29.20;52.80;;;;;;4992594;28;20057;-64
2023/06/11 11:42:48;;;;;;;0.00;0.00;;;29.40;52.40;;;;;;5004293;28;20559;-64
2023/06/11 11:45:14;;;;;;;;;;;29.50;52.10;;;;;;4996359;28;20133;-65
2023/06/11 11:47:50;;;;;;;0.10;0.10;;;29.40;52.50;;;;;;5002628;28;20009;-64
2023/06/11 11:50:25;;;;;;;0.35;0.35;;;29.20;52.80;;;;;;5011873;28;20859;-64
2023/06/11 11:53:08;;;;;;;0.00;0.00;;;29.10;52.90;;;;;;5011980;28;20132;-65
2023/06/11 11:55:36;;;;;;;0.03;0.03;;;29.20;49.80;;;;;;5012115;28;20064;-64
2023/06/11 11:58:13;;;;;;;0.08;0.08;;;29.30;51.60;;;;;;4978644;28;20046;-64
2023/06/11 12:00:52;;;;;;;0.10;0.10;;;29.40;47.50;;;;;;5011849;28;20133;-64
2023/06/11 12:03:20;;;;;;;0.00;0.00;;;29.60;49.50;;;;;;4992121;28;20088;-64
2023/06/11 12:05:59;;;;;;;0.00;0.00;;;29.80;51.30;;;;;;4975449;28;20050;-65
2023/06/11 12:08:26;;;;;;;0.00;0.00;;;30.00;51.20;;;;;;4992290;28;20042;-64
2023/06/11 12:10:52;;;;;;;0.00;0.00;;;30.00;51.70;;;;;;4993107;28;20050;-65
2023/06/11 12:13:18;;;;;;;0.05;0.05;;;30.10;51.20;;;;;;4992015;28;20066;-64
2023/06/11 12:15:44;;;;;;;0.00;0.00;;;30.10;50.80;;;;;;4993775;28;20686;-64
2023/06/11 12:18:09;;;;;;;0.00;0.00;;;30.00;44.50;;;;;;5011719;28;20136;-65
2023/06/11 12:20:35;;;;;;;0.00;0.00;;;30.00;47.90;;;;;;4994085;28;20781;-64
2023/06/11 12:23:01;;;;;;;0.00;0.00;;;30.10;49.50;;;;;;5011481;28;20125;-65
2023/06/11 12:25:27;;;;;;;0.00;0.00;;;30.30;46.60;;;;;;5011084;28;20056;-65
2023/06/11 12:27:54;;;;;;;0.00;0.00;;;30.30;46.90;;;;;;4993028;28;20406;-64
2023/06/11 12:30:19;;;;;;;0.13;0.13;;;30.40;49.10;;;;;;5003967;28;20435;-65
2023/06/11 12:32:45;;;;;;;0.00;0.00;;;30.50;46.90;;;;;;4994036;28;20045;-65
2023/06/11 12:35:11;;;;;;;0.00;0.00;;;30.60;48.20;;;;;;5010259;28;20076;-64
2023/06/11 12:37:36;;;;;;;0.35;0.30;;;30.70;48.00;;;;;;4996565;28;20045;-65
2023/06/11 12:40:06;;;;;;;0.10;0.10;;;30.60;47.10;;;;;;5011020;28;20120;-65
2023/06/11 12:42:33;;;;;;;0.47;0.35;;;30.40;43.00;;;;;;5009744;28;20042;-65
2023/06/11 12:45:00;;;;;;;0.00;0.00;;;30.20;45.10;;;;;;4996096;28;20047;-64
2023/06/11 12:47:25;;;;;;;0.00;0.00;;;30.20;44.80;;;;;;4991536;28;20038;-64